Lyndell, Pennsylvania
Current Conditions -  °F | °C
As of 5:35 PM on Monday 24 Nov 2014 (Local Time) from KMQS Reporting Station
Clear Clear  
Wind Chill: 63°   Ceiling: Unl
Heat Index: 63°   Visibility: 10mi
Dew Point: 55°   Wind: 7mph
Humidity: 77%   Direction: 190°S
Pressure: 29.67"   Gusts: NA
Location:  40.06°N, 75.74°W
Report Text: KMQS 242235Z AUTO 19006KT 160V230 10SM CLR 17/13 A2967 RMK AO2
Loading
Personal Weather Stations






























Interactive Weather Map New forecast layout! Learn more

10-Day Weather Forecast

Advertisements
Track Severe Weather on mobile